createdAt,value
2018-09-02T00:00:12.749Z,98786.34
2018-09-02T00:01:18.428Z,98786.72
2018-09-02T00:02:23.860Z,98787.43
2018-09-02T00:03:29.519Z,98793.21
2018-09-02T00:04:35.024Z,98789.87
2018-09-02T00:05:39.793Z,98785.88
2018-09-02T00:06:45.821Z,98786.51
2018-09-02T00:07:53.274Z,98782.69
2018-09-02T00:08:58.023Z,98783.66
2018-09-02T00:10:02.760Z,98784.39
2018-09-02T00:11:07.593Z,98787.73
2018-09-02T00:12:12.380Z,98787.13
2018-09-02T00:13:17.073Z,98796.10
2018-09-02T00:14:22.073Z,98790.32
2018-09-02T00:15:26.792Z,98791.20
2018-09-02T00:16:31.519Z,98797.59
2018-09-02T00:17:36.214Z,98789.66
2018-09-02T00:18:41.053Z,98786.69
2018-09-02T00:19:45.760Z,98794.09
2018-09-02T00:20:50.779Z,98794.32
2018-09-02T00:21:55.475Z,98790.98
2018-09-02T00:23:00.179Z,98795.28
2018-09-02T00:24:05.682Z,98792.84
2018-09-02T00:25:11.238Z,98795.44
2018-09-02T00:26:15.936Z,98797.16
2018-09-02T00:27:20.943Z,98801.08
2018-09-02T00:28:25.654Z,98795.86
2018-09-02T00:29:30.424Z,98795.63
2018-09-02T00:30:35.151Z,98798.28
2018-09-02T00:31:39.843Z,98793.14
2018-09-02T00:32:45.292Z,98797.55
2018-09-02T00:33:51.092Z,98799.64
2018-09-02T00:34:57.343Z,98798.95
2018-09-02T00:36:02.039Z,98799.95
2018-09-02T00:37:06.763Z,98792.59
2018-09-02T00:38:11.532Z,98795.17
2018-09-02T00:39:17.222Z,98793.52
2018-09-02T00:40:22.332Z,98790.56
2018-09-02T00:41:27.019Z,98792.80
2018-09-02T00:42:31.776Z,98797.16
2018-09-02T00:43:36.513Z,98792.36
2018-09-02T00:44:41.293Z,98788.52
2018-09-02T00:45:46.104Z,98791.92
2018-09-02T00:46:51.391Z,98793.16
2018-09-02T00:47:56.391Z,98790.79
2018-09-02T00:49:01.209Z,98791.70
2018-09-02T00:50:06.284Z,98795.20
2018-09-02T00:51:11.018Z,98800.73
2018-09-02T00:52:15.736Z,98793.16
2018-09-02T00:53:20.839Z,98795.20
2018-09-02T00:54:25.520Z,98794.52
2018-09-02T00:55:30.242Z,98795.56
2018-09-02T00:56:35.188Z,98791.52
2018-09-02T00:57:39.922Z,98791.69
2018-09-02T00:58:44.647Z,98790.43
2018-09-02T00:59:49.784Z,98790.17
2018-09-02T01:00:54.503Z,98792.59
2018-09-02T01:01:59.232Z,98793.98
2018-09-02T01:03:03.972Z,98791.10
2018-09-02T01:04:08.651Z,98797.73
2018-09-02T01:05:14.711Z,98794.43
2018-09-02T01:06:32.137Z,98783.31
2018-09-02T01:07:38.480Z,98789.64
2018-09-02T01:08:43.992Z,98790.31
2018-09-02T01:09:49.065Z,98791.50
2018-09-02T01:10:53.796Z,98795.06
2018-09-02T01:11:58.565Z,98793.56
2018-09-02T01:13:04.833Z,98793.67
2018-09-02T01:14:09.835Z,98794.22
2018-09-02T01:15:15.567Z,98798.64
2018-09-02T01:16:20.316Z,98802.02
2018-09-02T01:17:25.069Z,98805.63
2018-09-02T01:18:30.753Z,98801.53
2018-09-02T01:19:36.040Z,98801.09
2018-09-02T01:20:41.441Z,98802.84
2018-09-02T01:21:46.166Z,98802.35
2018-09-02T01:22:50.991Z,98801.97
2018-09-02T01:23:55.733Z,98808.59
2018-09-02T01:25:00.526Z,98803.30
2018-09-02T01:26:05.744Z,98804.02
2018-09-02T01:27:10.488Z,98803.14
2018-09-02T01:28:15.360Z,98804.27
2018-09-02T01:29:20.394Z,98802.35
2018-09-02T01:30:25.385Z,98805.59
2018-09-02T01:31:30.129Z,98806.01
2018-09-02T01:32:35.239Z,98805.64
2018-09-02T01:33:39.975Z,98805.67
2018-09-02T01:34:44.734Z,98806.55
2018-09-02T01:35:49.508Z,98807.53
2018-09-02T01:36:54.262Z,98807.70
2018-09-02T01:37:59.075Z,98804.64
2018-09-02T01:39:04.984Z,98807.74
2018-09-02T01:40:10.312Z,98813.95
2018-09-02T01:41:15.057Z,98806.06
2018-09-02T01:42:19.785Z,98806.06
2018-09-02T01:43:24.564Z,98804.87
2018-09-02T01:44:29.550Z,98798.66
2018-09-02T01:45:34.901Z,98803.23
2018-09-02T01:46:39.643Z,98799.16
2018-09-02T01:47:44.562Z,98798.54
2018-09-02T01:48:49.314Z,98790.82
2018-09-02T01:49:54.674Z,98789.01
2018-09-02T01:50:59.410Z,98797.97
2018-09-02T01:52:04.750Z,98793.14
2018-09-02T01:53:09.501Z,98797.85
2018-09-02T01:54:14.298Z,98799.86
2018-09-02T01:55:19.048Z,98796.00
2018-09-02T01:56:23.769Z,98794.56
2018-09-02T01:57:29.555Z,98791.55
2018-09-02T01:58:34.588Z,98790.79
2018-09-02T01:59:39.389Z,98795.88
2018-09-02T02:00:44.151Z,98801.72
2018-09-02T02:01:48.981Z,98799.52
2018-09-02T02:02:53.717Z,98797.77
2018-09-02T02:03:58.459Z,98802.34
2018-09-02T02:05:03.521Z,98797.41
2018-09-02T02:06:08.292Z,98805.37
2018-09-02T02:07:13.957Z,98799.67
2018-09-02T02:08:18.725Z,98802.42
2018-09-02T02:09:23.530Z,98793.41
2018-09-02T02:10:28.818Z,98795.55
2018-09-02T02:11:33.561Z,98796.94
2018-09-02T02:12:38.297Z,98793.32
2018-09-02T02:13:43.097Z,98790.61
2018-09-02T02:14:47.796Z,98791.50
2018-09-02T02:15:52.618Z,98795.47
2018-09-02T02:16:58.168Z,98788.63
2018-09-02T02:18:02.968Z,98790.64
2018-09-02T02:19:08.214Z,98789.73
2018-09-02T02:20:12.988Z,98778.88
2018-09-02T02:21:17.720Z,98779.56
2018-09-02T02:22:22.490Z,98781.14
2018-09-02T02:23:27.588Z,98774.42
2018-09-02T02:24:32.816Z,98782.77
2018-09-02T02:25:37.571Z,98779.38
2018-09-02T02:26:42.448Z,98784.78
2018-09-02T02:27:47.135Z,98778.75
2018-09-02T02:28:51.764Z,98780.88
2018-09-02T02:29:56.885Z,98780.77
2018-09-02T02:31:03.478Z,98784.78
2018-09-02T02:32:08.194Z,98781.77
2018-09-02T02:33:13.457Z,98782.21
2018-09-02T02:34:18.128Z,98784.28
2018-09-02T02:35:24.269Z,98790.81
2018-09-02T02:36:29.377Z,98784.91
2018-09-02T02:37:33.993Z,98787.68
2018-09-02T02:38:38.643Z,98780.42
2018-09-02T02:39:43.267Z,98782.78
2018-09-02T02:40:47.856Z,98782.02
2018-09-02T02:41:53.025Z,98782.72
2018-09-02T02:42:58.890Z,98775.50
2018-09-02T02:44:03.577Z,98780.64
2018-09-02T02:45:08.228Z,98773.36
2018-09-02T02:46:13.138Z,98773.29
2018-09-02T02:47:17.766Z,98772.53
2018-09-02T02:48:22.416Z,98772.97
2018-09-02T02:49:27.471Z,98765.27
2018-09-02T02:50:32.078Z,98774.06
2018-09-02T02:51:36.747Z,98769.42
2018-09-02T02:52:46.465Z,98768.34
2018-09-02T02:53:52.030Z,98774.13
2018-09-02T02:54:56.721Z,98774.23
2018-09-02T02:56:01.802Z,98779.63
2018-09-02T02:57:06.569Z,98767.66
2018-09-02T02:58:11.495Z,98770.42
2018-09-02T02:59:16.261Z,98769.66
2018-09-02T03:00:21.084Z,98765.77
2018-09-02T03:01:25.869Z,98764.27
2018-09-02T03:02:31.181Z,98763.08
2018-09-02T03:03:35.962Z,98765.21
2018-09-02T03:04:42.298Z,98763.58
2018-09-02T03:05:47.829Z,98755.02
2018-09-02T03:06:52.554Z,98760.73
2018-09-02T03:07:57.299Z,98754.91
2018-09-02T03:09:02.497Z,98750.25
2018-09-02T03:10:07.257Z,98759.16
2018-09-02T03:11:12.028Z,98753.47
2018-09-02T03:12:16.857Z,98750.45
2018-09-02T03:13:21.598Z,98752.76
2018-09-02T03:14:26.344Z,98752.64
2018-09-02T03:15:31.597Z,98751.70
2018-09-02T03:16:36.576Z,98753.22
2018-09-02T03:17:41.381Z,98752.09
2018-09-02T03:18:46.244Z,98748.38
2018-09-02T03:19:50.991Z,98748.77
2018-09-02T03:20:55.749Z,98745.25
2018-09-02T03:22:01.006Z,98746.01
2018-09-02T03:23:05.722Z,98742.63
2018-09-02T03:24:11.309Z,98745.45
2018-09-02T03:25:15.912Z,98735.84
2018-09-02T03:26:20.516Z,98738.28
2018-09-02T03:27:25.200Z,98733.94
2018-09-02T03:28:30.411Z,98737.70
2018-09-02T03:29:35.337Z,98738.46
2018-09-02T03:30:39.953Z,98735.83
2018-09-02T03:31:44.593Z,98739.53
2018-09-02T03:32:49.228Z,98735.20
2018-09-02T03:33:54.093Z,98737.88
2018-09-02T03:34:59.534Z,98738.64
2018-09-02T03:36:04.156Z,98741.21
2018-09-02T03:37:09.357Z,98739.52
2018-09-02T03:38:13.982Z,98739.41
2018-09-02T03:39:18.612Z,98743.80
2018-09-02T03:40:23.251Z,98745.67
2018-09-02T03:41:28.262Z,98740.28
2018-09-02T03:42:32.920Z,98741.36
2018-09-02T03:43:37.531Z,98740.42
2018-09-02T03:44:42.205Z,98738.41
2018-09-02T03:45:46.953Z,98736.28
2018-09-02T03:46:51.600Z,98734.81
2018-09-02T03:47:56.550Z,98731.17
2018-09-02T03:49:01.220Z,98734.88
2018-09-02T03:50:05.876Z,98725.34
2018-09-02T03:51:10.539Z,98725.22
2018-09-02T03:52:15.305Z,98723.65
2018-09-02T03:53:19.938Z,98726.28
2018-09-02T03:54:25.028Z,98725.41
2018-09-02T03:55:29.840Z,98727.53
2018-09-02T03:56:34.477Z,98724.58
2018-09-02T03:57:39.101Z,98731.61
2018-09-02T03:58:44.613Z,98728.61
2018-09-02T03:59:49.470Z,98731.38
2018-09-02T04:00:54.563Z,98724.29
2018-09-02T04:01:59.230Z,98729.55
2018-09-02T04:03:03.906Z,98726.77
2018-09-02T04:04:08.582Z,98727.97
2018-09-02T04:05:13.225Z,98734.19
2018-09-02T04:06:17.813Z,98731.09
2018-09-02T04:07:22.874Z,98731.52
2018-09-02T04:08:27.467Z,98732.55
2018-09-02T04:09:32.101Z,98731.64
2018-09-02T04:10:36.719Z,98735.63
2018-09-02T04:11:41.848Z,98729.98
2018-09-02T04:12:46.490Z,98737.06
2018-09-02T04:13:51.778Z,98737.94
2018-09-02T04:14:56.414Z,98729.33
2018-09-02T04:16:01.106Z,98734.72
2018-09-02T04:17:05.741Z,98735.11
2018-09-02T04:18:10.398Z,98733.13
2018-09-02T04:19:15.094Z,98736.28
2018-09-02T04:20:25.293Z,98734.16
2018-09-02T04:21:30.007Z,98735.52
2018-09-02T04:22:34.758Z,98734.83
2018-09-02T04:23:39.512Z,98735.70
2018-09-02T04:24:44.218Z,98733.33
2018-09-02T04:25:49.460Z,98742.12
2018-09-02T04:26:54.653Z,98730.46
2018-09-02T04:27:59.512Z,98732.97
2018-09-02T04:29:04.260Z,98731.20
2018-09-02T04:30:08.972Z,98728.95
2018-09-02T04:31:13.901Z,98728.64
2018-09-02T04:32:18.713Z,98729.20
2018-09-02T04:33:23.424Z,98729.08
2018-09-02T04:34:29.205Z,98733.14
2018-09-02T04:35:33.952Z,98728.64
2018-09-02T04:36:38.713Z,98726.76
2018-09-02T04:37:43.685Z,98724.41
2018-09-02T04:38:49.616Z,98726.05
2018-09-02T04:39:54.745Z,98727.30
2018-09-02T04:40:59.487Z,98725.61
2018-09-02T04:42:04.238Z,98724.69
2018-09-02T04:43:09.483Z,98724.52
2018-09-02T04:44:14.237Z,98725.23
2018-09-02T04:45:19.057Z,98731.44
2018-09-02T04:46:24.229Z,98722.50
2018-09-02T04:47:29.076Z,98732.52
2018-09-02T04:48:33.812Z,98726.70
2018-09-02T04:49:39.306Z,98728.00
2018-09-02T04:50:45.443Z,98730.07
2018-09-02T04:51:50.092Z,98726.64
2018-09-02T04:52:55.225Z,98721.05
2018-09-02T04:53:59.908Z,98723.58
2018-09-02T04:55:04.501Z,98719.87
2018-09-02T04:56:09.140Z,98724.45
2018-09-02T04:57:13.822Z,98722.73
2018-09-02T04:58:18.505Z,98716.42
2018-09-02T04:59:23.641Z,98710.73
2018-09-02T05:00:28.382Z,98712.55
2018-09-02T05:01:32.929Z,98715.90
2018-09-02T05:02:37.640Z,98710.84
2018-09-02T05:03:42.286Z,98716.56
2018-09-02T05:04:47.286Z,98714.39
2018-09-02T05:05:52.320Z,98718.14
2018-09-02T05:06:56.940Z,98717.98
2018-09-02T05:08:01.594Z,98715.59
2018-09-02T05:09:06.869Z,98716.41
2018-09-02T05:10:11.483Z,98715.25
2018-09-02T05:11:16.129Z,98715.47
2018-09-02T05:12:21.200Z,98712.65
2018-09-02T05:13:27.401Z,98713.57
2018-09-02T05:14:32.700Z,98719.59
2018-09-02T05:15:37.342Z,98715.23
2018-09-02T05:16:43.046Z,98712.87
2018-09-02T05:17:47.770Z,98711.95
2018-09-02T05:18:52.803Z,98720.95
2018-09-02T05:19:58.377Z,98717.08
2018-09-02T05:21:03.160Z,98717.13
2018-09-02T05:22:07.861Z,98715.21
2018-09-02T05:23:12.513Z,98714.46
2018-09-02T05:24:17.191Z,98709.92
2018-09-02T05:25:22.960Z,98713.34
2018-09-02T05:26:27.772Z,98715.00
2018-09-02T05:27:32.929Z,98715.48
2018-09-02T05:28:37.729Z,98716.02
2018-09-02T05:29:42.558Z,98714.18
2018-09-02T05:33:17.762Z,98712.16
2018-09-02T05:34:22.529Z,98713.42
2018-09-02T05:35:27.349Z,98713.15
2018-09-02T05:36:32.127Z,98714.89
2018-09-02T05:37:36.914Z,98717.26
2018-09-02T05:38:42.160Z,98708.10
2018-09-02T05:39:47.701Z,98708.22
2018-09-02T05:40:53.379Z,98712.30
2018-09-02T05:41:58.108Z,98711.19
2018-09-02T05:43:02.878Z,98716.58
2018-09-02T05:44:08.373Z,98717.88
2018-09-02T05:45:13.901Z,98714.77
2018-09-02T05:46:18.656Z,98716.62
2018-09-02T05:47:23.416Z,98714.28
2018-09-02T05:48:28.165Z,98714.77
2018-09-02T05:49:32.893Z,98716.62
2018-09-02T05:50:37.646Z,98715.00
2018-09-02T05:51:42.778Z,98715.19
2018-09-02T05:52:47.525Z,98711.53
2018-09-02T05:53:52.249Z,98716.48
2018-09-02T05:54:56.907Z,98714.51
2018-09-02T05:56:01.548Z,98715.45
2018-09-02T05:57:06.404Z,98717.20
2018-09-02T05:58:11.473Z,98713.06
2018-09-02T05:59:16.089Z,98720.14
2018-09-02T06:00:20.689Z,98712.95
2018-09-02T06:01:27.745Z,98713.85
2018-09-02T06:02:32.782Z,98711.72
2018-09-02T06:03:39.217Z,98710.44
2018-09-02T06:04:44.300Z,98713.55
2018-09-02T06:05:49.758Z,98716.80
2018-09-02T06:06:54.451Z,98717.35
2018-09-02T06:07:59.360Z,98718.02
2018-09-02T06:09:05.526Z,98717.51
2018-09-02T06:10:10.190Z,98714.05
2018-09-02T06:11:15.264Z,98712.30
2018-09-02T06:12:20.753Z,98707.34
2018-09-02T06:13:25.392Z,98709.53
2018-09-02T06:14:30.173Z,98712.05
2018-09-02T06:15:35.192Z,98712.80
2018-09-02T06:16:39.985Z,98714.65
2018-09-02T06:17:44.998Z,98704.28
2018-09-02T06:18:49.629Z,98708.88
2018-09-02T06:19:54.234Z,98715.48
2018-09-02T06:20:58.854Z,98713.20
2018-09-02T06:22:03.559Z,98711.84
2018-09-02T06:23:08.183Z,98712.20
2018-09-02T06:24:13.334Z,98715.81
2018-09-02T06:25:19.677Z,98714.73
2018-09-02T06:26:24.533Z,98714.94
2018-09-02T06:27:29.360Z,98716.40
2018-09-02T06:28:34.139Z,98721.73
2018-09-02T06:29:38.854Z,98721.77
2018-09-02T06:30:44.953Z,98716.79
2018-09-02T06:31:50.669Z,98717.84
2018-09-02T06:32:55.511Z,98716.32
2018-09-02T06:34:00.771Z,98711.26
2018-09-02T06:35:05.598Z,98709.54
2018-09-02T06:36:10.345Z,98710.15
2018-09-02T06:37:16.002Z,98709.06
2018-09-02T06:38:20.748Z,98717.30
2018-09-02T06:39:26.620Z,98719.44
2018-09-02T06:40:31.568Z,98718.42
2018-09-02T06:41:36.965Z,98713.89
2018-09-02T06:42:41.794Z,98718.00
2018-09-02T06:43:47.243Z,98724.80
2018-09-02T06:44:52.047Z,98723.48
2018-09-02T06:45:57.088Z,98720.87
2018-09-02T06:47:01.852Z,98721.01
2018-09-02T06:48:06.777Z,98723.99
2018-09-02T06:49:11.906Z,98715.89
2018-09-02T06:50:17.141Z,98716.55
2018-09-02T06:51:23.135Z,98718.93
2018-09-02T06:52:27.873Z,98716.61
2018-09-02T06:53:33.285Z,98721.34
2018-09-02T06:54:37.929Z,98716.08
2018-09-02T06:55:42.681Z,98715.16
2018-09-02T06:56:48.457Z,98719.21
2018-09-02T06:57:53.093Z,98713.68
2018-09-02T06:58:57.749Z,98722.98
2018-09-02T07:00:03.268Z,98720.67
2018-09-02T07:01:09.416Z,98712.45
2018-09-02T07:02:14.044Z,98722.67
2018-09-02T07:03:19.131Z,98721.93
2018-09-02T07:04:23.749Z,98716.91
2018-09-02T07:05:37.507Z,98720.80
2018-09-02T07:06:42.183Z,98721.08
2018-09-02T07:07:47.738Z,98714.11
2018-09-02T07:08:52.373Z,98718.72
2018-09-02T07:09:57.501Z,98719.84
2018-09-02T07:11:02.159Z,98720.41
2018-09-02T07:12:06.801Z,98716.81
2018-09-02T07:13:11.456Z,98717.84
2018-09-02T07:14:16.143Z,98710.80
2018-09-02T07:15:21.710Z,98713.36
2018-09-02T07:16:27.869Z,98708.24
2018-09-02T07:17:32.590Z,98715.44
2018-09-02T07:18:37.242Z,98707.57
2018-09-02T07:19:41.884Z,98706.97
2018-09-02T07:20:47.633Z,98706.73
2018-09-02T07:21:53.966Z,98716.94
2018-09-02T07:22:58.584Z,98718.84
2018-09-02T07:24:04.332Z,98720.34
2018-09-02T07:25:08.958Z,98714.42
2018-09-02T07:26:13.589Z,98707.47
2018-09-02T07:27:18.355Z,98717.22
2018-09-02T07:28:24.314Z,98718.16
2018-09-02T07:29:29.079Z,98717.16
2018-09-02T07:30:34.755Z,98711.44
2018-09-02T07:31:39.845Z,98712.28
2018-09-02T07:32:45.797Z,98716.44
2018-09-02T07:33:50.581Z,98713.48
2018-09-02T07:34:55.781Z,98714.36
2018-09-02T07:36:00.663Z,98706.45
2018-09-02T07:37:05.664Z,98710.28
2018-09-02T07:38:10.472Z,98708.83
2018-09-02T07:39:15.259Z,98708.17
2018-09-02T07:40:21.678Z,98711.72
2018-09-02T07:41:27.804Z,98712.78
2018-09-02T07:42:32.775Z,98711.03
2018-09-02T07:43:37.664Z,98709.91
2018-09-02T07:44:42.822Z,98710.38
2018-09-02T07:45:48.469Z,98710.86
2018-09-02T07:46:53.726Z,98709.42
2018-09-02T07:47:59.068Z,98709.01
2018-09-02T07:49:03.797Z,98708.78
2018-09-02T07:50:08.573Z,98709.06
2018-09-02T07:51:15.134Z,98711.34
2018-09-02T07:52:21.454Z,98709.11
2018-09-02T07:53:26.203Z,98712.82
2018-09-02T07:54:31.657Z,98710.94
2018-09-02T07:55:36.756Z,98707.30
2018-09-02T07:56:41.429Z,98707.27
2018-09-02T07:57:46.054Z,98704.94
2018-09-02T07:58:50.703Z,98707.09
2018-09-02T07:59:55.410Z,98706.00
2018-09-02T08:01:00.447Z,98708.70
2018-09-02T08:02:05.099Z,98709.77
2018-09-02T08:03:10.465Z,98709.22
2018-09-02T08:04:16.055Z,98710.63
2018-09-02T08:05:21.622Z,98709.78
2018-09-02T08:06:26.707Z,98709.45
2018-09-02T08:07:31.781Z,98706.72
2018-09-02T08:08:36.449Z,98707.98
2018-09-02T08:09:41.582Z,98711.77
2018-09-02T08:10:46.217Z,98711.67
2018-09-02T08:11:51.882Z,98708.64
2018-09-02T08:12:57.555Z,98705.11
2018-09-02T08:14:03.479Z,98710.69
2018-09-02T08:15:11.197Z,98707.94
2018-09-02T08:16:16.044Z,98707.57
2018-09-02T08:17:20.825Z,98708.75
2018-09-02T08:18:26.531Z,98709.41
2018-09-02T08:19:31.448Z,98702.42
2018-09-02T08:20:38.358Z,98698.69
2018-09-02T08:21:44.111Z,98704.78
2018-09-02T08:22:49.019Z,98702.16
2018-09-02T08:23:53.781Z,98701.48
2018-09-02T08:24:58.592Z,98701.50
2018-09-02T08:26:03.345Z,98701.13
2018-09-02T08:27:08.493Z,98701.11
2018-09-02T08:28:13.342Z,98698.27
2018-09-02T08:29:18.978Z,98704.90
2018-09-02T08:30:23.749Z,98705.65
2018-09-02T08:31:29.710Z,98702.69
2018-09-02T08:32:36.225Z,98700.34
2018-09-02T08:33:40.909Z,98705.74
2018-09-02T08:34:46.332Z,98701.71
2018-09-02T08:35:50.984Z,98698.95
2018-09-02T08:36:56.210Z,98695.10
2018-09-02T08:38:00.877Z,98693.08
2018-09-02T08:39:07.399Z,98691.64
2018-09-02T08:40:13.322Z,98689.48
2018-09-02T08:41:18.046Z,98691.31
2018-09-02T08:42:23.682Z,98689.09
2018-09-02T08:43:30.064Z,98688.71
2018-09-02T08:44:34.736Z,98690.57
2018-09-02T08:45:40.760Z,98691.85
2018-09-02T08:46:45.414Z,98682.84
2018-09-02T08:47:50.181Z,98686.19
2018-09-02T08:48:54.801Z,98677.78
2018-09-02T08:50:01.680Z,98671.91
2018-09-02T08:51:08.130Z,98680.84
2018-09-02T08:52:14.284Z,98678.80
2018-09-02T08:53:20.008Z,98678.49
2018-09-02T08:54:24.792Z,98676.99
2018-09-02T08:55:30.410Z,98673.45
2018-09-02T08:56:36.528Z,98682.95
2018-09-02T08:57:41.168Z,98678.66
2018-09-02T08:58:49.136Z,98675.13
2018-09-02T08:59:53.792Z,98675.86
2018-09-02T09:00:59.342Z,98674.67
2018-09-02T09:02:04.577Z,98673.88
2018-09-02T09:03:09.397Z,98673.30
2018-09-02T09:04:14.151Z,98668.54
2018-09-02T09:05:19.126Z,98671.02
2018-09-02T09:06:24.690Z,98676.99
2018-09-02T09:07:31.462Z,98681.72
2018-09-02T09:08:36.233Z,98676.99
2018-09-02T09:09:41.533Z,98676.50
2018-09-02T09:10:47.270Z,98669.24
2018-09-02T09:11:53.531Z,98674.25
2018-09-02T09:12:58.284Z,98666.16
2018-09-02T09:14:04.647Z,98672.61
2018-09-02T09:15:09.339Z,98676.27
2018-09-02T09:16:17.124Z,98678.26
2018-09-02T09:17:22.875Z,98672.23
2018-09-02T09:18:29.362Z,98678.49
2018-09-02T09:19:34.252Z,98675.47
2018-09-02T09:20:39.555Z,98672.39
2018-09-02T09:21:44.363Z,98668.44
2018-09-02T09:22:49.093Z,98667.53
2018-09-02T09:23:54.408Z,98670.31
2018-09-02T09:25:01.644Z,98667.13
2018-09-02T09:26:07.317Z,98657.38
2018-09-02T09:27:11.985Z,98665.28
2018-09-02T09:28:16.750Z,98660.59
2018-09-02T09:29:21.423Z,98661.58
2018-09-02T09:30:27.440Z,98662.72
2018-09-02T09:31:32.379Z,98651.72
2018-09-02T09:32:38.362Z,98649.91
2018-09-02T09:33:43.086Z,98656.11
2018-09-02T09:34:47.698Z,98660.11
2018-09-02T09:35:52.378Z,98657.36
2018-09-02T09:36:57.991Z,98653.38
2018-09-02T09:38:02.773Z,98653.88
2018-09-02T09:39:08.449Z,98656.08
2018-09-02T09:40:14.247Z,98660.99
2018-09-02T09:41:19.492Z,98664.06
2018-09-02T09:42:25.462Z,98653.05
2018-09-02T09:43:33.759Z,98654.71
2018-09-02T09:44:38.765Z,98657.06
2018-09-02T09:45:43.774Z,98656.91
2018-09-02T09:46:49.238Z,98652.64
2018-09-02T09:47:56.203Z,98651.77
2018-09-02T09:49:00.850Z,98647.13
2018-09-02T09:50:06.526Z,98651.45
2018-09-02T09:51:12.012Z,98647.00
2018-09-02T09:52:16.997Z,98640.06
2018-09-02T09:53:22.618Z,98645.09
2018-09-02T09:54:27.360Z,98651.14
2018-09-02T09:55:33.328Z,98645.69
2018-09-02T09:56:38.385Z,98647.11
2018-09-02T09:57:43.812Z,98647.45
2018-09-02T09:58:49.873Z,98644.08
2018-09-02T09:59:58.054Z,98644.69
2018-09-02T10:01:02.804Z,98637.15
2018-09-02T10:02:09.394Z,98638.00
2018-09-02T10:03:15.379Z,98644.89
2018-09-02T10:04:20.240Z,98633.17
2018-09-02T10:05:25.391Z,98636.77
2018-09-02T10:06:30.075Z,98645.45
2018-09-02T10:07:35.808Z,98641.66
2018-09-02T10:08:41.261Z,98636.94
2018-09-02T10:09:47.448Z,98637.42
2018-09-02T10:10:52.939Z,98647.11
2018-09-02T10:11:58.564Z,98631.80
2018-09-02T10:13:03.464Z,98644.45
2018-09-02T10:14:10.011Z,98640.98
2018-09-02T10:15:15.905Z,98643.74
2018-09-02T10:16:21.895Z,98643.87
2018-09-02T10:17:27.635Z,98634.35
2018-09-02T10:18:32.412Z,98640.47
2018-09-02T10:19:37.101Z,98645.41
2018-09-02T10:20:42.339Z,98643.11
2018-09-02T10:21:47.020Z,98637.94
2018-09-02T10:22:52.036Z,98640.09
2018-09-02T10:23:57.585Z,98633.97
2018-09-02T10:25:02.257Z,98636.60
2018-09-02T10:26:08.962Z,98631.75
2018-09-02T10:27:13.639Z,98638.70
2018-09-02T10:28:20.239Z,98637.66
2018-09-02T10:29:25.393Z,98634.44
2018-09-02T10:32:22.324Z,98633.48
2018-09-02T10:33:28.536Z,98630.19
2018-09-02T10:34:34.239Z,98631.27
2018-09-02T10:35:40.982Z,98629.28
2018-09-02T10:36:47.418Z,98621.94
2018-09-02T10:37:53.078Z,98622.28
2018-09-02T10:38:57.751Z,98623.08
2018-09-02T10:40:02.487Z,98621.27
2018-09-02T10:41:08.892Z,98626.91
2018-09-02T10:42:14.606Z,98622.84
2018-09-02T10:43:19.255Z,98618.86
2018-09-02T10:44:28.558Z,98623.44
2018-09-02T10:45:34.989Z,98621.57
2018-09-02T10:46:44.689Z,98623.92
2018-09-02T10:47:49.747Z,98625.45
2018-09-02T10:48:54.896Z,98621.99
2018-09-02T10:49:59.632Z,98618.53
2018-09-02T10:51:04.582Z,98615.33
2018-09-02T10:52:11.347Z,98610.95
2018-09-02T10:53:16.032Z,98588.86
2018-09-02T10:54:21.631Z,98599.05
2018-09-02T10:55:26.627Z,98602.47
2018-09-02T10:56:31.269Z,98605.91
2018-09-02T10:57:36.697Z,98597.78
2018-09-02T10:58:42.284Z,98607.86
2018-09-02T10:59:50.095Z,98603.93
2018-09-02T11:00:54.750Z,98606.72
2018-09-02T11:02:00.306Z,98599.86
2018-09-02T11:03:05.017Z,98597.15
2018-09-02T11:04:10.290Z,98597.48
2018-09-02T11:05:14.981Z,98592.69
2018-09-02T11:06:20.146Z,98599.20
2018-09-02T11:07:25.970Z,98599.76
2018-09-02T11:08:31.776Z,98604.50
2018-09-02T11:09:38.389Z,98599.14
2018-09-02T11:10:43.009Z,98599.77
2018-09-02T11:11:47.689Z,98599.02
2018-09-02T11:12:52.383Z,98596.48
2018-09-02T11:13:58.456Z,98592.08
2018-09-02T11:15:03.872Z,98594.97
2018-09-02T11:16:09.498Z,98593.89
2018-09-02T11:17:14.610Z,98591.72
2018-09-02T11:18:19.456Z,98594.80
2018-09-02T11:19:24.336Z,98588.34
2018-09-02T11:20:29.288Z,98594.53
2018-09-02T11:22:40.007Z,98592.52
2018-09-02T11:23:47.761Z,98591.95
2018-09-02T11:24:52.518Z,98585.77
2018-09-02T11:25:57.438Z,98586.66
2018-09-02T11:27:02.292Z,98582.39
2018-09-02T11:28:09.305Z,98579.03
2018-09-02T11:29:14.825Z,98583.73
2018-09-02T11:30:20.388Z,98583.59
2018-09-02T11:31:25.999Z,98584.11
2018-09-02T11:32:37.655Z,98585.29
2018-09-02T11:33:50.277Z,98585.44
2018-09-02T11:34:57.249Z,98590.02
2018-09-02T11:36:02.667Z,98585.55
2018-09-02T11:37:07.326Z,98579.98
2018-09-02T11:38:13.297Z,98581.97
2018-09-02T11:39:18.655Z,98583.55
2018-09-02T11:40:25.719Z,98570.95
2018-09-02T11:41:31.640Z,98579.09
2018-09-02T11:42:38.792Z,98575.58
2018-09-02T11:43:43.542Z,98564.02
2018-09-02T11:44:49.919Z,98575.52
2018-09-02T11:45:55.293Z,98582.58
2018-09-02T11:47:00.932Z,98577.92
2018-09-02T11:48:06.168Z,98582.23
2018-09-02T11:49:11.642Z,98576.84
2018-09-02T11:50:19.537Z,98573.72
2018-09-02T11:51:24.195Z,98575.10
2018-09-02T11:52:30.309Z,98575.91
2018-09-02T11:53:35.502Z,98577.25
2018-09-02T11:54:40.444Z,98572.94
2018-09-02T11:55:46.504Z,98576.21
2018-09-02T11:56:51.751Z,98574.63
2018-09-02T11:57:57.061Z,98576.70
2018-09-02T11:59:02.561Z,98577.65
2018-09-02T12:00:08.945Z,98577.45
2018-09-02T12:01:14.774Z,98570.26
2018-09-02T12:02:19.598Z,98577.99
2018-09-02T12:03:24.229Z,98576.04
2018-09-02T12:04:32.830Z,98581.96
2018-09-02T12:05:38.106Z,98581.08
2018-09-02T12:06:42.746Z,98571.73
2018-09-02T12:07:48.346Z,98578.33
2018-09-02T12:08:53.728Z,98575.77
2018-09-02T12:09:59.274Z,98573.73
2018-09-02T12:11:04.437Z,98570.56
2018-09-02T12:12:10.263Z,98571.03
2018-09-02T12:13:23.200Z,98561.00
2018-09-02T12:14:29.454Z,98567.77
2018-09-02T12:15:34.979Z,98561.48
2018-09-02T12:16:39.824Z,98558.25
2018-09-02T12:17:44.570Z,98563.37
2018-09-02T12:18:50.364Z,98562.52
2018-09-02T12:19:55.517Z,98560.33
2018-09-02T12:21:00.211Z,98558.06
2018-09-02T12:22:06.606Z,98550.93
2018-09-02T12:23:11.246Z,98561.55
2018-09-02T12:24:16.556Z,98550.07
2018-09-02T12:25:23.536Z,98551.22
2018-09-02T12:26:28.198Z,98550.34
2018-09-02T12:27:34.369Z,98556.18
2018-09-02T12:28:39.190Z,98547.06
2018-09-02T12:29:43.845Z,98552.70
2018-09-02T12:30:48.572Z,98546.98
2018-09-02T12:31:54.271Z,98548.94
2018-09-02T12:32:59.273Z,98543.27
2018-09-02T12:34:04.683Z,98552.07
2018-09-02T12:35:09.343Z,98543.80
2018-09-02T12:36:16.841Z,98539.52
2018-09-02T12:37:21.512Z,98544.22
2018-09-02T12:38:27.361Z,98541.28
2018-09-02T12:39:32.033Z,98542.47
2018-09-02T12:40:37.994Z,98533.02
2018-09-02T12:41:48.066Z,98531.65
2018-09-02T12:42:55.357Z,98520.80
2018-09-02T12:44:02.913Z,98534.16
2018-09-02T12:45:08.237Z,98533.45
2018-09-02T12:46:14.660Z,98531.31
2018-09-02T12:47:19.345Z,98524.66
2018-09-02T12:48:24.708Z,98530.69
2018-09-02T12:49:30.706Z,98533.58
2018-09-02T12:50:37.164Z,98536.73
2018-09-02T12:51:42.384Z,98536.00